Time;durP1;ratioP1;P1;durP2;ratioP2;P2;SDS_P1;SDS_P2;PMS_P1;PMS_P2;Temp;Humidity;BMP_temperature;BMP_pressure;BME280_temperature;BME280_humidity;BME280_pressure;Samples;Min_cycle;Max_cycle;Signal;HPM_P1;HPM_P2
2024/03/28 00:00:28;;;;;;;;;;;;;;;;;;5042633;28;19960;-63
2024/03/28 00:02:54;;;;;;;;;;;;;;;;;;5044078;28;20035;-63
2024/03/28 00:05:20;;;;;;;;;;;;;;;;;;5046862;28;20407;-63
2024/03/28 00:07:46;;;;;;;;;;;;;;;;;;5047265;28;19934;-62
2024/03/28 00:10:11;;;;;;;;;;;;;;;;;;5046947;28;19920;-62
2024/03/28 00:12:37;;;;;;;;;;;;;;;;;;5041297;28;21634;-63
2024/03/28 00:15:03;;;;;;;;;;;;;;;;;;5044630;28;19932;-62
2024/03/28 00:17:29;;;;;;;;;;;;;;;;;;5044600;28;19933;-62
2024/03/28 00:19:55;;;;;;;;;;;;;;;;;;5048494;28;19927;-62
2024/03/28 00:22:21;;;;;;;;;;;;;;;;;;5047944;28;20617;-62
2024/03/28 00:24:47;;;;;;;;;;;;;;;;;;5049628;28;19982;-62
2024/03/28 00:27:13;;;;;;;;;;;;;;;;;;5050340;28;19986;-62
2024/03/28 00:29:39;;;;;;;;;;;;;;;;;;5047742;28;20319;-62
2024/03/28 00:32:05;;;;;;;;;;;;;;;;;;5041859;28;19936;-62
2024/03/28 00:34:30;;;;;;;;;;;;;;;;;;5049678;28;19924;-62
2024/03/28 00:36:56;;;;;;;;;;;;;;;;;;5032773;28;19931;-62
2024/03/28 00:39:22;;;;;;;;;;;;;;;;;;5033734;28;19920;-62
2024/03/28 00:41:48;;;;;;;;;;;;;;;;;;5030734;28;20364;-62
2024/03/28 00:44:14;;;;;;;;;;;;;;;;;;5011162;28;19931;-62
2024/03/28 00:46:40;;;;;;;;;;;;;;;;;;5043859;28;19925;-62
2024/03/28 00:49:06;;;;;;;;;;;;;;;;;;5046737;28;19948;-62
2024/03/28 00:51:32;;;;;;;;;;;;;;;;;;5032338;28;19924;-62
2024/03/28 00:53:58;;;;;;;;;;;;;;;;;;5049298;28;19924;-63
2024/03/28 00:56:23;;;;;;;;;;;;;;;;;;5045351;28;19933;-62
2024/03/28 00:58:49;;;;;;;;;;;;;;;;;;5045220;28;20272;-62
2024/03/28 01:01:15;;;;;;;;;;;;;;;;;;5024378;28;19928;-62
2024/03/28 01:03:41;;;;;;;;;;;;;;;;;;5046632;28;19928;-62
2024/03/28 01:06:07;;;;;;;;;;;;;;;;;;5050770;28;19925;-62
2024/03/28 01:08:33;;;;;;;;;;;;;;;;;;5048662;28;20264;-62
2024/03/28 01:10:59;;;;;;;;;;;;;;;;;;5033683;28;19921;-62
2024/03/28 01:13:25;;;;;;;;;;;;;;;;;;5047684;28;19921;-62
2024/03/28 01:15:51;;;;;;;;;;;;;;;;;;5021326;28;19986;-62
2024/03/28 01:18:17;;;;;;;;;;;;;;;;;;5045491;28;19951;-62
2024/03/28 01:20:42;;;;;;;;;;;;;;;;;;5033678;28;19971;-62
2024/03/28 01:23:08;;;;;;;;;;;;;;;;;;5049463;28;19920;-62
2024/03/28 01:25:34;;;;;;;;;;;;;;;;;;5048216;28;20288;-62
2024/03/28 01:28:00;;;;;;;;;;;;;;;;;;5047105;28;19929;-62
2024/03/28 01:30:26;;;;;;;;;;;;;;;;;;5044889;28;19936;-62
2024/03/28 01:32:52;;;;;;;;;;;;;;;;;;5047921;28;19925;-62
2024/03/28 01:35:18;;;;;;;;;;;;;;;;;;5028631;28;19929;-62
2024/03/28 01:37:44;;;;;;;;;;;;;;;;;;5047460;28;19936;-62
2024/03/28 01:40:10;;;;;;;;;;;;;;;;;;5050846;28;19920;-62
2024/03/28 01:42:36;;;;;;;;;;;;;;;;;;5051464;28;19929;-62
2024/03/28 01:45:02;;;;;;;;;;;;;;;;;;5048404;28;19925;-62
2024/03/28 01:47:28;;;;;;;;;;;;;;;;;;5026449;28;20276;-62
2024/03/28 01:49:53;;;;;;;;;;;;;;;;;;5035463;28;19939;-62
2024/03/28 01:52:19;;;;;;;;;;;;;;;;;;5048292;28;19927;-63
2024/03/28 01:54:45;;;;;;;;;;;;;;;;;;5046432;28;19936;-64
2024/03/28 01:57:11;;;;;;;;;;;;;;;;;;5046671;28;20280;-63
2024/03/28 01:59:37;;;;;;;;;;;;;;;;;;5049905;28;19929;-63
2024/03/28 02:02:03;;;;;;;;;;;;;;;;;;5037556;28;19920;-63
2024/03/28 02:04:29;;;;;;;;;;;;;;;;;;5042336;28;19925;-63
2024/03/28 02:06:55;;;;;;;;;;;;;;;;;;5053035;28;20408;-63
2024/03/28 02:09:21;;;;;;;;;;;;;;;;;;5051114;28;19920;-63
2024/03/28 02:11:47;;;;;;;;;;;;;;;;;;5054730;28;19960;-63
2024/03/28 02:14:13;;;;;;;;;;;;;;;;;;5029830;28;20245;-63
2024/03/28 02:16:39;;;;;;;;;;;;;;;;;;5045676;28;19924;-63
2024/03/28 02:19:05;;;;;;;;;;;;;;;;;;5052527;28;19936;-63
2024/03/28 02:21:31;;;;;;;;;;;;;;;;;;5037063;28;19994;-62
2024/03/28 02:23:57;;;;;;;;;;;;;;;;;;5049727;28;19925;-62
2024/03/28 02:26:23;;;;;;;;;;;;;;;;;;5044036;28;19920;-62
2024/03/28 02:28:48;;;;;;;;;;;;;;;;;;5051518;28;19928;-62
2024/03/28 02:31:14;;;;;;;;;;;;;;;;;;5048919;28;19928;-63
2024/03/28 02:33:40;;;;;;;;;;;;;;;;;;5033402;28;20002;-63
2024/03/28 02:36:06;;;;;;;;;;;;;;;;;;5024310;28;19925;-63
2024/03/28 02:38:32;;;;;;;;;;;;;;;;;;5050997;28;19925;-63
2024/03/28 02:40:58;;;;;;;;;;;;;;;;;;5053008;28;19924;-63
2024/03/28 02:43:24;;;;;;;;;;;;;;;;;;5052356;28;20005;-63
2024/03/28 02:45:50;;;;;;;;;;;;;;;;;;5033479;28;19971;-63
2024/03/28 02:48:16;;;;;;;;;;;;;;;;;;5051396;28;19928;-63
2024/03/28 02:50:42;;;;;;;;;;;;;;;;;;5050266;28;19939;-63
2024/03/28 02:53:07;;;;;;;;;;;;;;;;;;5052712;28;20266;-62
2024/03/28 02:55:33;;;;;;;;;;;;;;;;;;5052874;28;19931;-62
2024/03/28 02:57:59;;;;;;;;;;;;;;;;;;5052369;28;19927;-62
2024/03/28 03:00:25;;;;;;;;;;;;;;;;;;5047929;28;19936;-62
2024/03/28 03:02:51;;;;;;;;;;;;;;;;;;5051028;28;20370;-62
2024/03/28 03:05:17;;;;;;;;;;;;;;;;;;5047440;28;19921;-62
2024/03/28 03:07:43;;;;;;;;;;;;;;;;;;5037294;28;19928;-63
2024/03/28 03:10:09;;;;;;;;;;;;;;;;;;5047776;28;19927;-63
2024/03/28 03:12:35;;;;;;;;;;;;;;;;;;5051370;28;20370;-62
2024/03/28 03:15:01;;;;;;;;;;;;;;;;;;5033028;28;19929;-63
2024/03/28 03:17:27;;;;;;;;;;;;;;;;;;5017698;28;19921;-63
2024/03/28 03:19:55;;;;;;;;;;;;;;;;;;5048315;28;20752;-63
2024/03/28 03:22:22;;;;;;;;;;;;;;;;;;5039794;28;20531;-63
2024/03/28 03:24:48;;;;;;;;;;;;;;;;;;5031629;28;20399;-63
2024/03/28 03:27:17;;;;;;;;;;;;;;;;;;5047799;28;19971;-63
2024/03/28 03:35:13;;;;;;;;;;;;;;;;;;5049036;28;20019;-63
2024/03/28 03:37:38;;;;;;;;;;;;;;;;;;5041911;28;20529;-63
2024/03/28 03:40:09;;;;;;;;;;;;;;;;;;5049891;28;19970;-63
2024/03/28 03:42:35;;;;;;;;;;;;;;;;;;5050222;28;19928;-63
2024/03/28 03:45:01;;;;;;;;;;;;;;;;;;5051317;28;19920;-63
2024/03/28 03:47:27;;;;;;;;;;;;;;;;;;5045157;28;19925;-63
2024/03/28 03:49:53;;;;;;;;;;;;;;;;;;5043336;28;19921;-62
2024/03/28 03:52:19;;;;;;;;;;;;;;;;;;5043265;28;20025;-62
2024/03/28 03:54:45;;;;;;;;;;;;;;;;;;5049819;28;19998;-63
2024/03/28 03:57:11;;;;;;;;;;;;;;;;;;5047875;28;20351;-62
2024/03/28 03:59:37;;;;;;;;;;;;;;;;;;5050305;28;20566;-63
2024/03/28 04:02:03;;;;;;;;;;;;;;;;;;5045245;28;19927;-63
2024/03/28 04:04:29;;;;;;;;;;;;;;;;;;5052113;28;20330;-63
2024/03/28 04:06:55;;;;;;;;;;;;;;;;;;5031309;28;19924;-62
2024/03/28 04:09:21;;;;;;;;;;;;;;;;;;5046312;28;19963;-63
2024/03/28 04:11:47;;;;;;;;;;;;;;;;;;5043232;28;20380;-63
2024/03/28 04:14:13;;;;;;;;;;;;;;;;;;5049675;28;19928;-63
2024/03/28 04:16:39;;;;;;;;;;;;;;;;;;5009828;28;19932;-63
2024/03/28 04:19:05;;;;;;;;;;;;;;;;;;5032299;28;20011;-62
2024/03/28 04:21:34;;;;;;;;;;;;;;;;;;5017559;28;19921;-62
2024/03/28 04:24:00;;;;;;;;;;;;;;;;;;5042577;28;20277;-62
2024/03/28 04:26:26;;;;;;;;;;;;;;;;;;5050539;28;19921;-62
2024/03/28 04:28:52;;;;;;;;;;;;;;;;;;5031801;28;19921;-62
2024/03/28 04:31:18;;;;;;;;;;;;;;;;;;5044997;28;20354;-63
2024/03/28 04:33:44;;;;;;;;;;;;;;;;;;5050183;28;19986;-63
2024/03/28 04:36:10;;;;;;;;;;;;;;;;;;5045915;28;19925;-63
2024/03/28 04:38:35;;;;;;;;;;;;;;;;;;5028460;28;19928;-63
2024/03/28 04:41:01;;;;;;;;;;;;;;;;;;5051258;28;19924;-64
2024/03/28 04:43:27;;;;;;;;;;;;;;;;;;5049634;28;19925;-63
2024/03/28 04:45:53;;;;;;;;;;;;;;;;;;5043697;28;19921;-64
2024/03/28 04:48:19;;;;;;;;;;;;;;;;;;5046328;28;19928;-63
2024/03/28 04:50:45;;;;;;;;;;;;;;;;;;5048921;28;19925;-63
2024/03/28 04:53:11;;;;;;;;;;;;;;;;;;5049162;28;19925;-63
2024/03/28 04:55:37;;;;;;;;;;;;;;;;;;5046197;28;19929;-62
2024/03/28 04:58:03;;;;;;;;;;;;;;;;;;5048186;28;19973;-62
2024/03/28 05:00:29;;;;;;;;;;;;;;;;;;5043805;28;19925;-62
2024/03/28 05:02:55;;;;;;;;;;;;;;;;;;5037538;28;19928;-62
2024/03/28 05:05:21;;;;;;;;;;;;;;;;;;5050148;28;20004;-62
2024/03/28 05:07:46;;;;;;;;;;;;;;;;;;5048613;28;19924;-62
2024/03/28 05:10:12;;;;;;;;;;;;;;;;;;5014169;28;19924;-68
2024/03/28 05:12:38;;;;;;;;;;;;;;;;;;5031559;28;19971;-67
2024/03/28 05:15:06;;;;;;;;;;;;;;;;;;5047081;28;19994;-62
2024/03/28 05:17:31;;;;;;;;;;;;;;;;;;5039153;28;19924;-62
2024/03/28 05:19:57;;;;;;;;;;;;;;;;;;5047464;28;19920;-62
2024/03/28 05:22:23;;;;;;;;;;;;;;;;;;5039225;28;19925;-62
2024/03/28 05:24:49;;;;;;;;;;;;;;;;;;5031832;28;19924;-62
2024/03/28 05:27:15;;;;;;;;;;;;;;;;;;5047099;28;20434;-62
2024/03/28 05:29:41;;;;;;;;;;;;;;;;;;5049902;28;19928;-62
2024/03/28 05:32:07;;;;;;;;;;;;;;;;;;5018153;28;19921;-63
2024/03/28 05:34:33;;;;;;;;;;;;;;;;;;5030178;28;19928;-62
2024/03/28 05:36:59;;;;;;;;;;;;;;;;;;5046797;28;20018;-63
2024/03/28 05:39:25;;;;;;;;;;;;;;;;;;5032345;28;20059;-63
2024/03/28 05:41:51;;;;;;;;;;;;;;;;;;5049075;28;20082;-63
2024/03/28 05:44:17;;;;;;;;;;;;;;;;;;5018953;28;19931;-63
2024/03/28 05:46:42;;;;;;;;;;;;;;;;;;5042697;28;19932;-63
2024/03/28 05:49:08;;;;;;;;;;;;;;;;;;5052250;28;19921;-63
2024/03/28 05:51:34;;;;;;;;;;;;;;;;;;5032875;28;20300;-62
2024/03/28 05:54:00;;;;;;;;;;;;;;;;;;5046057;28;19929;-62
2024/03/28 05:56:26;;;;;;;;;;;;;;;;;;5046200;28;19929;-62
2024/03/28 05:58:52;;;;;;;;;;;;;;;;;;5052937;28;20388;-62
2024/03/28 06:01:18;;;;;;;;;;;;;;;;;;5044340;28;19921;-62
2024/03/28 06:03:44;;;;;;;;;;;;;;;;;;5052641;28;19936;-62
2024/03/28 06:06:10;;;;;;;;;;;;;;;;;;5052555;28;20446;-62
2024/03/28 06:08:36;;;;;;;;;;;;;;;;;;5052168;28;19987;-61
2024/03/28 06:11:02;;;;;;;;;;;;;;;;;;5039334;28;20425;-62
2024/03/28 06:13:28;;;;;;;;;;;;;;;;;;5051514;28;19925;-62
2024/03/28 06:15:54;;;;;;;;;;;;;;;;;;5028714;28;19933;-62
2024/03/28 06:18:20;;;;;;;;;;;;;;;;;;5015828;28;19921;-62
2024/03/28 06:20:46;;;;;;;;;;;;;;;;;;5054833;28;19921;-62
2024/03/28 06:23:12;;;;;;;;;;;;;;;;;;5052552;28;19924;-63
2024/03/28 06:25:37;;;;;;;;;;;;;;;;;;5051282;28;19943;-63
2024/03/28 06:28:03;;;;;;;;;;;;;;;;;;5048964;28;19927;-63
2024/03/28 06:30:30;;;;;;;;;;;;;;;;;;5038194;28;19921;-63
2024/03/28 06:32:56;;;;;;;;;;;;;;;;;;5052562;28;20003;-63
2024/03/28 06:35:22;;;;;;;;;;;;;;;;;;5050658;28;20530;-63
2024/03/28 06:37:48;;;;;;;;;;;;;;;;;;5043141;28;19925;-63
2024/03/28 06:40:15;;;;;;;;;;;;;;;;;;5034758;28;19935;-63
2024/03/28 06:42:41;;;;;;;;;;;;;;;;;;5043404;28;19928;-63
2024/03/28 06:45:08;;;;;;;;;;;;;;;;;;5044026;28;19928;-63
2024/03/28 06:47:34;;;;;;;;;;;;;;;;;;5035743;28;20268;-63
2024/03/28 06:49:59;;;;;;;;;;;;;;;;;;5035301;28;19921;-63
2024/03/28 06:52:25;;;;;;;;;;;;;;;;;;5054157;28;19932;-63
2024/03/28 06:54:51;;;;;;;;;;;;;;;;;;5034483;28;20268;-63
2024/03/28 06:57:17;;;;;;;;;;;;;;;;;;5047243;28;19932;-63
2024/03/28 06:59:43;;;;;;;;;;;;;;;;;;5043209;28;19928;-63
2024/03/28 07:02:09;;;;;;;;;;;;;;;;;;5045436;28;19925;-62
2024/03/28 07:04:35;;;;;;;;;;;;;;;;;;5053836;28;19921;-62
2024/03/28 07:07:01;;;;;;;;;;;;;;;;;;5032258;28;19932;-62
2024/03/28 07:09:27;;;;;;;;;;;;;;;;;;5034112;28;19928;-62
2024/03/28 07:11:53;;;;;;;;;;;;;;;;;;5020081;22;19930;-62
2024/03/28 07:14:19;;;;;;;;;;;;;;;;;;4995603;28;19944;-62
2024/03/28 07:16:45;;;;;;;;;;;;;;;;;;4994365;28;19928;-62
2024/03/28 07:19:11;;;;;;;;;;;;;;;;;;5000297;28;19925;-62
2024/03/28 07:21:36;;;;;;;;;;;;;;;;;;5012204;28;20592;-63
2024/03/28 07:24:02;;;;;;;;;;;;;;;;;;5013403;28;20354;-63
2024/03/28 07:26:28;;;;;;;;;;;;;;;;;;5013691;28;20042;-63
2024/03/28 07:28:54;;;;;;;;;;;;;;;;;;4998463;28;20005;-65
2024/03/28 07:31:20;;;;;;;;;;;;;;;;;;4999395;28;19935;-62
2024/03/28 07:33:46;;;;;;;;;;;;;;;;;;5021222;28;19974;-63
2024/03/28 07:36:12;;;;;;;;;;;;;;;;;;5013660;28;19991;-63
2024/03/28 07:38:38;;;;;;;;;;;;;;;;;;5026957;28;19921;-63
2024/03/28 07:41:04;;;;;;;;;;;;;;;;;;5012066;28;19925;-63
2024/03/28 07:43:30;;;;;;;;;;;;;;;;;;5011160;28;19932;-64
2024/03/28 07:45:56;;;;;;;;;;;;;;;;;;5003356;28;19928;-63
2024/03/28 07:48:22;;;;;;;;;;;;;;;;;;5006178;28;19925;-63
2024/03/28 07:50:48;;;;;;;;;;;;;;;;;;5017898;28;20416;-63
2024/03/28 07:53:14;;;;;;;;;;;;;;;;;;5013330;28;19922;-64
2024/03/28 07:55:40;;;;;;;;;;;;;;;;;;5009230;28;20016;-64
2024/03/28 07:58:06;;;;;;;;;;;;;;;;;;5005256;28;19925;-64
2024/03/28 08:00:32;;;;;;;;;;;;;;;;;;5006610;28;19925;-64
2024/03/28 08:02:58;;;;;;;;;;;;;;;;;;5012335;28;19970;-64
2024/03/28 08:05:24;;;;;;;;;;;;;;;;;;5003658;28;20012;-64
2024/03/28 08:07:50;;;;;;;;;;;;;;;;;;5007227;28;20020;-64
2024/03/28 08:10:16;;;;;;;;;;;;;;;;;;5007139;28;20347;-64
2024/03/28 08:12:42;;;;;;;;;;;;;;;;;;5013022;28;19922;-64
2024/03/28 08:15:09;;;;;;;;;;;;;;;;;;5007688;28;19930;-64
2024/03/28 08:17:37;;;;;;;;;;;;;;;;;;5009688;28;19922;-64
2024/03/28 08:20:13;;;;;;;;;;;;;;;;;;4998763;28;19929;-64
2024/03/28 08:22:39;;;;;;;;;;;;;;;;;;5015752;28;20387;-64
2024/03/28 08:25:05;;;;;;;;;;;;;;;;;;5003454;28;19922;-64
2024/03/28 08:27:32;;;;;;;;;;;;;;;;;;5012751;28;19922;-63
2024/03/28 08:29:58;;;;;;;;;;;;;;;;;;5010379;28;20373;-63
2024/03/28 08:32:24;;;;;;;;;;;;;;;;;;5004083;28;19968;-63
2024/03/28 08:34:50;;;;;;;;;;;;;;;;;;5010626;28;19960;-63
2024/03/28 08:37:15;;;;;;;;;;;;;;;;;;5002113;28;19932;-63
2024/03/28 08:39:42;;;;;;;;;;;;;;;;;;5006466;28;19922;-66
2024/03/28 08:42:07;;;;;;;;;;;;;;;;;;5007855;28;20020;-64
2024/03/28 08:44:33;;;;;;;;;;;;;;;;;;5007755;28;20099;-64
2024/03/28 08:46:59;;;;;;;;;;;;;;;;;;5005761;28;20008;-63
2024/03/28 08:49:28;;;;;;;;;;;;;;;;;;5010281;28;19921;-64
2024/03/28 08:51:54;;;;;;;;;;;;;;;;;;4994696;28;19928;-64
2024/03/28 08:54:22;;;;;;;;;;;;;;;;;;5007710;28;19925;-64
2024/03/28 08:56:48;;;;;;;;;;;;;;;;;;4999212;28;20734;-64
2024/03/28 08:59:14;;;;;;;;;;;;;;;;;;4998192;28;19992;-64
2024/03/28 09:01:40;;;;;;;;;;;;;;;;;;5008136;28;20335;-63
2024/03/28 09:04:07;;;;;;;;;;;;;;;;;;5007694;28;19929;-63
2024/03/28 09:06:33;;;;;;;;;;;;;;;;;;5003787;28;19932;-63
2024/03/28 09:09:00;;;;;;;;;;;;;;;;;;4998910;28;20004;-62
2024/03/28 09:11:26;;;;;;;;;;;;;;;;;;4980868;28;19930;-63
2024/03/28 09:13:52;;;;;;;;;;;;;;;;;;5005761;28;20273;-63
2024/03/28 09:16:18;;;;;;;;;;;;;;;;;;4999974;28;19921;-63
2024/03/28 09:18:44;;;;;;;;;;;;;;;;;;5002406;28;19925;-63
2024/03/28 09:21:11;;;;;;;;;;;;;;;;;;5001876;28;19921;-67
2024/03/28 09:23:37;;;;;;;;;;;;;;;;;;5008169;28;19964;-67
2024/03/28 09:26:03;;;;;;;;;;;;;;;;;;4994935;28;19972;-67
2024/03/28 09:28:29;;;;;;;;;;;;;;;;;;5004061;28;20420;-66
2024/03/28 09:30:55;;;;;;;;;;;;;;;;;;5005183;28;19921;-66
2024/03/28 09:33:21;;;;;;;;;;;;;;;;;;5010279;28;20406;-66
2024/03/28 09:35:47;;;;;;;;;;;;;;;;;;5006565;28;19925;-66
2024/03/28 09:38:13;;;;;;;;;;;;;;;;;;5029586;28;19921;-66
2024/03/28 09:40:39;;;;;;;;;;;;;;;;;;5025121;28;19921;-66
2024/03/28 09:43:05;;;;;;;;;;;;;;;;;;5010451;28;20028;-66
2024/03/28 09:45:31;;;;;;;;;;;;;;;;;;5005337;28;20424;-66
2024/03/28 09:47:57;;;;;;;;;;;;;;;;;;5011586;28;19925;-66
2024/03/28 09:50:23;;;;;;;;;;;;;;;;;;5011569;28;20020;-66
2024/03/28 09:52:49;;;;;;;;;;;;;;;;;;5011522;28;19947;-66
2024/03/28 09:55:15;;;;;;;;;;;;;;;;;;5011344;28;20371;-66
2024/03/28 09:57:41;;;;;;;;;;;;;;;;;;5009020;28;20013;-66
2024/03/28 10:00:07;;;;;;;;;;;;;;;;;;4991932;28;19969;-66
2024/03/28 10:02:33;;;;;;;;;;;;;;;;;;4992138;28;19922;-66
2024/03/28 10:04:59;;;;;;;;;;;;;;;;;;5000440;28;19928;-66
2024/03/28 10:07:25;;;;;;;;;;;;;;;;;;5011494;28;19928;-67
2024/03/28 10:09:51;;;;;;;;;;;;;;;;;;5011294;28;20440;-66
2024/03/28 10:12:17;;;;;;;;;;;;;;;;;;5009049;28;19921;-66
2024/03/28 10:14:43;;;;;;;;;;;;;;;;;;4990343;28;19930;-67
2024/03/28 10:17:12;;;;;;;;;;;;;;;;;;4992002;28;19926;-66
2024/03/28 10:19:40;;;;;;;;;;;;;;;;;;4991812;28;19922;-66
2024/03/28 10:22:06;;;;;;;;;;;;;;;;;;4991614;28;20056;-66
2024/03/28 10:24:33;;;;;;;;;;;;;;;;;;4993875;28;20008;-66
2024/03/28 10:26:59;;;;;;;;;;;;;;;;;;4995342;28;20549;-66
2024/03/28 10:29:29;;;;;;;;;;;;;;;;;;4996362;28;19973;-66
2024/03/28 10:31:55;;;;;;;;;;;;;;;;;;5012197;28;19926;-66
2024/03/28 10:34:21;;;;;;;;;;;;;;;;;;5011233;28;19930;-66
2024/03/28 10:36:47;;;;;;;;;;;;;;;;;;5013224;28;20420;-66
2024/03/28 10:39:13;;;;;;;;;;;;;;;;;;5014532;28;19921;-67
2024/03/28 10:41:39;;;;;;;;;;;;;;;;;;5013253;28;19925;-66
2024/03/28 10:44:05;;;;;;;;;;;;;;;;;;5015804;28;20296;-67
2024/03/28 10:46:31;;;;;;;;;;;;;;;;;;5014348;28;20434;-66
2024/03/28 10:49:06;;;;;;;;;;;;;;;;;;5006267;28;19965;-66
2024/03/28 10:51:32;;;;;;;;;;;;;;;;;;4994760;28;20370;-66
2024/03/28 10:53:58;;;;;;;;;;;;;;;;;;4994745;28;19929;-66
2024/03/28 10:56:23;;;;;;;;;;;;;;;;;;4994551;28;19923;-66
2024/03/28 10:58:49;;;;;;;;;;;;;;;;;;4994766;28;20472;-66
2024/03/28 11:01:16;;;;;;;;;;;;;;;;;;5007105;28;19925;-66
2024/03/28 11:03:42;;;;;;;;;;;;;;;;;;5009230;28;19929;-67
2024/03/28 11:06:09;;;;;;;;;;;;;;;;;;5013707;28;20352;-66
2024/03/28 11:08:35;;;;;;;;;;;;;;;;;;5010570;28;20377;-66
2024/03/28 11:11:01;;;;;;;;;;;;;;;;;;5013808;28;19937;-67
2024/03/28 11:13:27;;;;;;;;;;;;;;;;;;5010072;28;19932;-67
2024/03/28 11:15:52;;;;;;;;;;;;;;;;;;5006939;28;20037;-66
2024/03/28 11:18:18;;;;;;;;;;;;;;;;;;5009774;28;20016;-66
2024/03/28 11:20:44;;;;;;;;;;;;;;;;;;4997314;28;20379;-67
2024/03/28 11:23:10;;;;;;;;;;;;;;;;;;5010625;28;19930;-67
2024/03/28 11:25:37;;;;;;;;;;;;;;;;;;5008875;28;20011;-67
2024/03/28 11:28:03;;;;;;;;;;;;;;;;;;5010426;28;19928;-67
2024/03/28 11:30:29;;;;;;;;;;;;;;;;;;5000415;28;19932;-68
2024/03/28 11:32:55;;;;;;;;;;;;;;;;;;4996310;28;20012;-68
2024/03/28 11:35:21;;;;;;;;;;;;;;;;;;5006343;28;19932;-67
2024/03/28 11:37:49;;;;;;;;;;;;;;;;;;5013637;28;19952;-67
2024/03/28 11:40:15;;;;;;;;;;;;;;;;;;5011812;28;19929;-67
2024/03/28 11:42:41;;;;;;;;;;;;;;;;;;5027298;28;19929;-68
2024/03/28 11:45:07;;;;;;;;;;;;;;;;;;5010041;28;20404;-68
2024/03/28 11:47:34;;;;;;;;;;;;;;;;;;4999006;28;19928;-67
2024/03/28 11:50:00;;;;;;;;;;;;;;;;;;5001229;28;19925;-67
2024/03/28 11:52:26;;;;;;;;;;;;;;;;;;5005086;28;19975;-68
2024/03/28 11:54:52;;;;;;;;;;;;;;;;;;5008712;28;19931;-67
2024/03/28 11:57:17;;;;;;;;;;;;;;;;;;5032985;28;20318;-67
2024/03/28 11:59:43;;;;;;;;;;;;;;;;;;5032962;28;20015;-67
2024/03/28 12:02:10;;;;;;;;;;;;;;;;;;5032600;28;20012;-67
2024/03/28 12:04:36;;;;;;;;;;;;;;;;;;5005466;28;19933;-67
2024/03/28 12:07:02;;;;;;;;;;;;;;;;;;5011758;28;19933;-67
2024/03/28 12:09:28;;;;;;;;;;;;;;;;;;4997760;28;19929;-68
2024/03/28 12:11:56;;;;;;;;;;;;;;;;;;4999365;28;20012;-67
2024/03/28 12:14:22;;;;;;;;;;;;;;;;;;4998029;28;20452;-68
2024/03/28 12:16:48;;;;;;;;;;;;;;;;;;4997427;28;19929;-68
2024/03/28 12:19:14;;;;;;;;;;;;;;;;;;5012373;28;20423;-65
2024/03/28 12:21:40;;;;;;;;;;;;;;;;;;5012505;28;20085;-65
2024/03/28 12:24:06;;;;;;;;;;;;;;;;;;5024905;28;19921;-65
2024/03/28 12:26:32;;;;;;;;;;;;;;;;;;5009787;28;20342;-65
2024/03/28 12:28:58;;;;;;;;;;;;;;;;;;5010373;28;19922;-65
2024/03/28 12:31:24;;;;;;;;;;;;;;;;;;5008406;28;19925;-65
2024/03/28 12:33:50;;;;;;;;;;;;;;;;;;4994357;28;19929;-65
2024/03/28 12:36:17;;;;;;;;;;;;;;;;;;5005142;28;19948;-65
2024/03/28 12:38:43;;;;;;;;;;;;;;;;;;5004016;28;19961;-65
2024/03/28 12:41:09;;;;;;;;;;;;;;;;;;4999728;28;19922;-65
2024/03/28 12:43:35;;;;;;;;;;;;;;;;;;5003251;28;20000;-65
2024/03/28 12:46:05;;;;;;;;;;;;;;;;;;5015006;28;20331;-66
2024/03/28 12:48:30;;;;;;;;;;;;;;;;;;4992381;28;19957;-68
2024/03/28 12:50:56;;;;;;;;;;;;;;;;;;5009538;28;19922;-68
2024/03/28 12:53:22;;;;;;;;;;;;;;;;;;5002946;28;19930;-67
2024/03/28 12:55:48;;;;;;;;;;;;;;;;;;4990239;28;19934;-67
2024/03/28 12:58:14;;;;;;;;;;;;;;;;;;4993317;28;20047;-67
2024/03/28 13:00:40;;;;;;;;;;;;;;;;;;4989209;28;19922;-67
2024/03/28 13:03:06;;;;;;;;;;;;;;;;;;4991178;28;19929;-68
2024/03/28 13:05:32;;;;;;;;;;;;;;;;;;5010951;28;19940;-67
2024/03/28 13:07:58;;;;;;;;;;;;;;;;;;5006513;28;20343;-67
2024/03/28 13:10:24;;;;;;;;;;;;;;;;;;5009945;28;19925;-67
2024/03/28 13:12:50;;;;;;;;;;;;;;;;;;5007260;28;19921;-67
2024/03/28 13:15:16;;;;;;;;;;;;;;;;;;5010846;28;19940;-67
2024/03/28 13:17:42;;;;;;;;;;;;;;;;;;5011169;28;19922;-67
2024/03/28 13:20:09;;;;;;;;;;;;;;;;;;4993345;28;19921;-67
2024/03/28 13:22:35;;;;;;;;;;;;;;;;;;5010477;28;19941;-67
2024/03/28 13:25:03;;;;;;;;;;;;;;;;;;5008734;28;20004;-67
2024/03/28 13:27:29;;;;;;;;;;;;;;;;;;5011686;28;19922;-67
2024/03/28 13:29:55;;;;;;;;;;;;;;;;;;5007702;28;19972;-67
2024/03/28 13:32:21;;;;;;;;;;;;;;;;;;5011909;28;19929;-67
2024/03/28 13:34:47;;;;;;;;;;;;;;;;;;5010009;28;20454;-67
2024/03/28 13:37:14;;;;;;;;;;;;;;;;;;5011408;28;20008;-67
2024/03/28 13:39:42;;;;;;;;;;;;;;;;;;4992026;28;19925;-67
2024/03/28 13:42:08;;;;;;;;;;;;;;;;;;5009985;28;20292;-67
2024/03/28 13:44:34;;;;;;;;;;;;;;;;;;5010205;28;20024;-67
2024/03/28 13:47:00;;;;;;;;;;;;;;;;;;5008685;28;19922;-67
2024/03/28 13:49:26;;;;;;;;;;;;;;;;;;5009726;28;20032;-67
2024/03/28 13:51:52;;;;;;;;;;;;;;;;;;5011681;28;20402;-67
2024/03/28 13:54:17;;;;;;;;;;;;;;;;;;5007630;28;19936;-67
2024/03/28 13:56:43;;;;;;;;;;;;;;;;;;5011810;28;19967;-67
2024/03/28 13:59:09;;;;;;;;;;;;;;;;;;4995353;28;19925;-67
2024/03/28 14:01:38;;;;;;;;;;;;;;;;;;5015569;28;19952;-67
2024/03/28 14:04:04;;;;;;;;;;;;;;;;;;5013766;28;19929;-67
2024/03/28 14:06:30;;;;;;;;;;;;;;;;;;5015232;28;19929;-67
2024/03/28 14:08:56;;;;;;;;;;;;;;;;;;5013655;28;19968;-67
2024/03/28 14:11:22;;;;;;;;;;;;;;;;;;5013883;28;20015;-67
2024/03/28 14:13:48;;;;;;;;;;;;;;;;;;5013249;28;20319;-67
2024/03/28 14:16:14;;;;;;;;;;;;;;;;;;5015020;28;20438;-67
2024/03/28 14:18:40;;;;;;;;;;;;;;;;;;5015254;28;19933;-67
2024/03/28 14:21:06;;;;;;;;;;;;;;;;;;5012620;28;19921;-67
2024/03/28 14:23:32;;;;;;;;;;;;;;;;;;5013637;28;19928;-67
2024/03/28 14:25:58;;;;;;;;;;;;;;;;;;5013567;28;20012;-67
2024/03/28 14:28:24;;;;;;;;;;;;;;;;;;5015132;28;20063;-67
2024/03/28 14:30:50;;;;;;;;;;;;;;;;;;5013123;28;20008;-67
2024/03/28 14:33:15;;;;;;;;;;;;;;;;;;5013277;28;20280;-67
2024/03/28 14:35:41;;;;;;;;;;;;;;;;;;5014539;28;19929;-67
2024/03/28 14:38:07;;;;;;;;;;;;;;;;;;5012201;28;19925;-67
2024/03/28 14:40:33;;;;;;;;;;;;;;;;;;5012279;28;19921;-67
2024/03/28 14:42:59;;;;;;;;;;;;;;;;;;5013972;28;19976;-67
2024/03/28 14:45:25;;;;;;;;;;;;;;;;;;5018177;28;19999;-67
2024/03/28 14:47:51;;;;;;;;;;;;;;;;;;5013160;28;19933;-67
2024/03/28 14:50:17;;;;;;;;;;;;;;;;;;5013691;28;19929;-68
2024/03/28 14:52:43;;;;;;;;;;;;;;;;;;5014285;28;19976;-67
2024/03/28 14:55:09;;;;;;;;;;;;;;;;;;5007735;28;19999;-69
2024/03/28 14:57:34;;;;;;;;;;;;;;;;;;4997767;28;19925;-67
2024/03/28 15:00:00;;;;;;;;;;;;;;;;;;5016067;28;20388;-67
2024/03/28 15:02:27;;;;;;;;;;;;;;;;;;5014000;28;19921;-67
2024/03/28 15:04:52;;;;;;;;;;;;;;;;;;4996579;28;19921;-67
2024/03/28 15:07:19;;;;;;;;;;;;;;;;;;5014070;28;20340;-67
2024/03/28 15:09:45;;;;;;;;;;;;;;;;;;5012938;28;19945;-67
2024/03/28 15:12:11;;;;;;;;;;;;;;;;;;4992737;28;20312;-67
2024/03/28 15:14:37;;;;;;;;;;;;;;;;;;5000072;28;19938;-67
2024/03/28 15:17:02;;;;;;;;;;;;;;;;;;5011194;28;19921;-67
2024/03/28 15:19:28;;;;;;;;;;;;;;;;;;5012721;28;19921;-67
2024/03/28 15:21:54;;;;;;;;;;;;;;;;;;5007896;28;20304;-68
2024/03/28 15:24:20;;;;;;;;;;;;;;;;;;5009548;28;19930;-69
2024/03/28 15:26:46;;;;;;;;;;;;;;;;;;5008561;28;19932;-68
2024/03/28 15:29:14;;;;;;;;;;;;;;;;;;4994293;28;20013;-65
2024/03/28 15:31:40;;;;;;;;;;;;;;;;;;5011581;28;19975;-65
2024/03/28 15:34:06;;;;;;;;;;;;;;;;;;4997021;28;19926;-65
2024/03/28 15:36:32;;;;;;;;;;;;;;;;;;4996978;28;19957;-65
2024/03/28 15:38:58;;;;;;;;;;;;;;;;;;5005928;28;20640;-65
2024/03/28 15:41:24;;;;;;;;;;;;;;;;;;5007108;28;19921;-65
2024/03/28 15:43:50;;;;;;;;;;;;;;;;;;5010054;28;19921;-65
2024/03/28 15:46:16;;;;;;;;;;;;;;;;;;5000126;28;19932;-65
2024/03/28 15:48:41;;;;;;;;;;;;;;;;;;5007113;28;19926;-65
2024/03/28 15:51:08;;;;;;;;;;;;;;;;;;5008349;28;19922;-66
2024/03/28 15:53:34;;;;;;;;;;;;;;;;;;4994518;28;19937;-65
2024/03/28 15:56:00;;;;;;;;;;;;;;;;;;5011966;28;20404;-65
2024/03/28 15:58:26;;;;;;;;;;;;;;;;;;5010489;28;19921;-65
2024/03/28 16:00:52;;;;;;;;;;;;;;;;;;5005775;28;19921;-65
2024/03/28 16:03:18;;;;;;;;;;;;;;;;;;5007005;28;19931;-65
2024/03/28 16:05:44;;;;;;;;;;;;;;;;;;5011896;28;20008;-65
2024/03/28 16:08:12;;;;;;;;;;;;;;;;;;5006151;28;19929;-65
2024/03/28 16:10:38;;;;;;;;;;;;;;;;;;5012789;28;19925;-65
2024/03/28 16:13:03;;;;;;;;;;;;;;;;;;5009923;28;20398;-65
2024/03/28 16:15:30;;;;;;;;;;;;;;;;;;5010572;28;19930;-65
2024/03/28 16:17:55;;;;;;;;;;;;;;;;;;4997647;28;19925;-65
2024/03/28 16:20:21;;;;;;;;;;;;;;;;;;5008991;28;19991;-65
2024/03/28 16:22:48;;;;;;;;;;;;;;;;;;5009445;28;19928;-65
2024/03/28 16:25:14;;;;;;;;;;;;;;;;;;5003225;28;19932;-65
2024/03/28 16:27:40;;;;;;;;;;;;;;;;;;5008335;28;19923;-65
2024/03/28 16:30:08;;;;;;;;;;;;;;;;;;5008168;28;20198;-65
2024/03/28 16:32:33;;;;;;;;;;;;;;;;;;5013883;28;20059;-65
2024/03/28 16:34:59;;;;;;;;;;;;;;;;;;5010602;28;19926;-65
2024/03/28 16:37:25;;;;;;;;;;;;;;;;;;5008968;28;20393;-65
2024/03/28 16:39:51;;;;;;;;;;;;;;;;;;5010142;28;19925;-65
2024/03/28 16:42:17;;;;;;;;;;;;;;;;;;5002318;28;19930;-65